Time;durP1;ratioP1;P1;durP2;ratioP2;P2;SDS_P1;SDS_P2;PMS_P1;PMS_P2;Temp;Humidity;BMP_temperature;BMP_pressure;BME280_temperature;BME280_humidity;BME280_pressure;Samples;Min_cycle;Max_cycle;Signal;HPM_P1;HPM_P2
2022/10/07 00:01:04;;;;;;;6.50;4.70;;;;;;;12.61;100.00;97270.59;5063063;28;20208;-74
2022/10/07 00:03:32;;;;;;;10.33;8.60;;;;;;;12.54;100.00;97278.78;5063416;28;20201;-75
2022/10/07 00:06:07;;;;;;;9.27;7.33;;;;;;;12.55;100.00;97269.63;5060239;28;20264;-74
2022/10/07 00:08:37;;;;;;;7.53;6.20;;;;;;;12.59;100.00;97278.16;5071389;28;20266;-74
2022/10/07 00:11:07;;;;;;;7.90;6.87;;;;;;;12.59;100.00;97275.44;5063384;28;20228;-74
2022/10/07 00:13:35;;;;;;;8.27;6.30;;;;;;;12.50;100.00;97281.09;5056545;28;20261;-75
2022/10/07 00:16:07;;;;;;;8.63;6.20;;;;;;;12.54;100.00;97286.09;5063785;28;20224;-75
2022/10/07 00:18:35;;;;;;;6.00;5.27;;;;;;;12.56;100.00;97276.69;5060552;28;20308;-75
2022/10/07 00:21:07;;;;;;;5.27;4.40;;;;;;;12.57;100.00;97277.53;5060344;28;20205;-74
2022/10/07 00:23:34;;;;;;;7.83;4.73;;;;;;;12.52;100.00;97276.28;5061535;28;20233;-74
2022/10/07 00:26:04;;;;;;;6.10;5.33;;;;;;;12.51;100.00;97285.47;5062051;28;20197;-74
2022/10/07 00:28:31;;;;;;;6.07;4.53;;;;;;;12.54;100.00;97284.22;5058409;28;20209;-74
2022/10/07 00:30:59;;;;;;;7.80;4.23;;;;;;;12.63;100.00;97280.19;5054992;28;20305;-74
2022/10/07 00:33:26;;;;;;;5.10;4.07;;;;;;;12.64;100.00;97279.13;5053857;28;20205;-75
2022/10/07 00:35:53;;;;;;;6.00;4.57;;;;;;;12.58;100.00;97274.59;5061875;28;20225;-74
2022/10/07 00:38:20;;;;;;;8.67;4.70;;;;;;;12.60;100.00;97277.06;5060313;28;20215;-75
2022/10/07 00:40:47;;;;;;;7.47;5.73;;;;;;;12.45;100.00;97274.69;5057716;28;20231;-75
2022/10/07 00:43:25;;;;;;;12.90;5.60;;;;;;;12.49;100.00;97275.91;5056787;28;20208;-74
2022/10/07 00:45:53;;;;;;;8.13;5.00;;;;;;;12.44;100.00;97267.59;5059673;28;20237;-75
2022/10/07 00:48:26;;;;;;;7.27;5.67;;;;;;;12.41;100.00;97266.19;5057114;28;20225;-75
2022/10/07 00:50:56;;;;;;;10.60;5.87;;;;;;;12.42;100.00;97264.28;5062355;28;20208;-75
2022/10/07 00:53:25;;;;;;;6.83;5.10;;;;;;;12.44;100.00;97263.03;5060949;28;20311;-74
2022/10/07 00:55:54;;;;;;;9.80;5.00;;;;;;;12.44;100.00;97262.19;5059116;28;20221;-74
2022/10/07 00:58:25;;;;;;;4.80;4.30;;;;;;;12.40;100.00;97261.81;5054696;28;20206;-74
2022/10/07 01:00:52;;;;;;;6.73;5.10;;;;;;;12.33;100.00;97261.03;5071720;28;20221;-74
2022/10/07 01:03:19;;;;;;;5.90;4.20;;;;;;;12.33;100.00;97261.03;5055915;28;20202;-74
2022/10/07 01:05:46;;;;;;;8.43;4.07;;;;;;;12.34;100.00;97253.72;5066953;28;20620;-74
2022/10/07 01:08:14;;;;;;;6.13;4.53;;;;;;;12.36;100.00;97248.91;5066823;28;20210;-75
2022/10/07 01:10:52;;;;;;;7.53;4.30;;;;;;;12.36;100.00;97248.91;5064221;28;20213;-74
2022/10/07 01:13:27;;;;;;;7.07;4.10;;;;;;;12.36;100.00;97236.19;5055307;28;20225;-74
2022/10/07 01:16:01;;;;;;;6.73;4.10;;;;;;;12.30;100.00;97238.97;5065398;28;20518;-74
2022/10/07 01:18:33;;;;;;;5.23;4.47;;;;;;;12.25;100.00;97236.09;5067101;28;20220;-75
2022/10/07 01:21:07;;;;;;;10.80;4.53;;;;;;;12.19;100.00;97226.97;5065824;28;20259;-74
2022/10/07 01:23:59;;;;;;;7.47;4.40;;;;;;;12.16;100.00;97234.69;5056908;28;20296;-74
2022/10/07 01:26:54;;;;;;;7.03;4.80;;;;;;;12.17;100.00;97222.78;5061794;28;20205;-74
2022/10/07 01:29:26;;;;;;;5.47;3.97;;;;;;;12.24;100.00;97220.91;5077139;28;20304;-74
2022/10/07 01:31:59;;;;;;;6.73;4.20;;;;;;;12.22;100.00;97220.28;5066757;28;20213;-75
2022/10/07 01:34:28;;;;;;;8.70;4.40;;;;;;;12.22;100.00;97209.44;5065628;28;20221;-74
2022/10/07 01:36:59;;;;;;;5.53;3.97;;;;;;;12.24;100.00;97219.03;5065988;28;20205;-75
2022/10/07 01:39:31;;;;;;;6.27;4.00;;;;;;;12.25;100.00;97209.81;5079795;28;20220;-74
2022/10/07 01:42:00;;;;;;;7.27;4.20;;;;;;;12.12;100.00;97201.81;5064928;28;20569;-74
2022/10/07 01:44:29;;;;;;;5.10;3.70;;;;;;;12.07;100.00;97216.00;5064146;28;20215;-75
2022/10/07 01:46:57;;;;;;;8.07;4.27;;;;;;;12.07;100.00;97210.59;5061878;28;20210;-74
2022/10/07 01:49:25;;;;;;;5.07;4.23;;;;;;;12.11;100.00;97200.97;5059983;28;20217;-74
2022/10/07 01:52:08;;;;;;;6.10;3.93;;;;;;;12.10;100.00;97212.84;5063812;28;20225;-74
2022/10/07 01:54:47;;;;;;;8.57;4.30;;;;;;;12.06;100.00;97208.94;5066549;28;20314;-75
2022/10/07 01:57:27;;;;;;;5.80;4.23;;;;;;;12.02;100.00;97199.59;5065873;28;20197;-74
2022/10/07 02:00:08;;;;;;;6.97;4.00;;;;;;;12.01;100.00;97203.34;5062300;28;20204;-74
2022/10/07 02:02:55;;;;;;;4.93;4.03;;;;;;;12.04;100.00;97192.06;5061932;28;20190;-75
2022/10/07 02:05:32;;;;;;;4.80;3.97;;;;;;;12.09;100.00;97194.13;5064682;28;20202;-75
2022/10/07 02:08:15;;;;;;;4.63;4.10;;;;;;;12.16;100.00;97199.50;5056915;28;20205;-75
2022/10/07 02:10:58;;;;;;;4.67;3.97;;;;;;;12.21;100.00;97192.38;5079968;28;20208;-74
2022/10/07 02:13:34;;;;;;;7.13;4.03;;;;;;;12.19;100.00;97199.03;5056837;28;20240;-74
2022/10/07 02:16:09;;;;;;;4.37;3.97;;;;;;;12.15;100.00;97189.72;5063269;28;20236;-75
2022/10/07 02:18:39;;;;;;;5.43;4.00;;;;;;;12.19;100.00;97193.63;5061815;28;20214;-75
2022/10/07 02:21:09;;;;;;;9.30;4.30;;;;;;;12.17;100.00;97191.13;5063339;28;20205;-74
2022/10/07 02:23:40;;;;;;;7.47;4.60;;;;;;;12.13;100.00;97190.75;5063233;28;20263;-75
2022/10/07 02:26:12;;;;;;;5.73;4.10;;;;;;;12.08;100.00;97187.03;5063659;28;20205;-75
2022/10/07 02:28:43;;;;;;;5.53;4.10;;;;;;;12.08;100.00;97181.63;5062916;28;20198;-74
2022/10/07 02:31:16;;;;;;;7.80;4.30;;;;;;;12.09;100.00;97188.69;5056883;28;20208;-74
2022/10/07 02:33:45;;;;;;;6.10;4.23;;;;;;;12.11;100.00;97178.50;5064671;28;20205;-74
2022/10/07 02:36:20;;;;;;;5.67;3.90;;;;;;;12.11;100.00;97179.31;5064750;28;20229;-75
2022/10/07 02:38:47;;;;;;;5.47;3.90;;;;;;;12.11;100.00;97176.63;5071897;28;20231;-75
2022/10/07 02:41:30;;;;;;;5.90;3.77;;;;;;;12.04;100.00;97165.00;5067879;28;20229;-74
2022/10/07 02:44:13;;;;;;;7.50;4.23;;;;;;;12.07;100.00;97164.56;5063468;28;20216;-74
2022/10/07 02:46:48;;;;;;;6.30;4.00;;;;;;;12.07;100.00;97172.69;5062859;28;20251;-74
2022/10/07 02:49:17;;;;;;;6.43;4.20;;;;;;;12.09;100.00;97167.03;5065030;28;20216;-74
2022/10/07 02:51:48;;;;;;;5.60;4.00;;;;;;;12.08;100.00;97173.50;5061136;28;20289;-74
2022/10/07 02:54:20;;;;;;;6.87;4.03;;;;;;;12.04;100.00;97175.84;5064112;28;20212;-75
2022/10/07 02:56:49;;;;;;;5.73;4.37;;;;;;;11.94;100.00;97174.66;5050662;28;20278;-74
2022/10/07 02:59:18;;;;;;;7.17;4.33;;;;;;;11.90;100.00;97166.16;5064785;28;20209;-74
2022/10/07 03:01:50;;;;;;;5.73;4.67;;;;;;;11.91;100.00;97164.28;5063397;28;20220;-74
2022/10/07 03:04:17;;;;;;;5.83;4.27;;;;;;;11.88;100.00;97165.53;5054907;28;20206;-74
2022/10/07 03:06:45;;;;;;;6.47;4.33;;;;;;;11.84;100.00;97169.72;5061058;28;20216;-74
2022/10/07 03:09:12;;;;;;;4.87;4.17;;;;;;;11.82;100.00;97155.59;5067440;28;20201;-74
2022/10/07 03:11:41;;;;;;;4.97;4.00;;;;;;;11.82;100.00;97162.88;5062416;28;20293;-74
2022/10/07 03:14:09;;;;;;;5.47;4.10;;;;;;;11.73;100.00;97170.41;5061026;28;20201;-74
2022/10/07 03:16:37;;;;;;;7.47;4.17;;;;;;;11.68;100.00;97167.50;5064686;28;20237;-75
2022/10/07 03:19:04;;;;;;;6.93;4.30;;;;;;;11.62;100.00;97168.38;5061467;28;20241;-74
2022/10/07 03:21:42;;;;;;;6.90;4.83;;;;;;;11.58;100.00;97164.44;5064586;28;20213;-74
2022/10/07 03:24:10;;;;;;;6.10;4.70;;;;;;;11.59;100.00;97166.09;5057319;28;20217;-74
2022/10/07 03:26:43;;;;;;;6.37;4.03;;;;;;;11.54;100.00;97158.66;5061036;28;20194;-74
2022/10/07 03:29:12;;;;;;;6.73;3.87;;;;;;;11.55;100.00;97160.31;5063549;28;20229;-74
2022/10/07 03:31:41;;;;;;;5.40;4.20;;;;;;;11.55;100.00;97154.91;5062682;28;20211;-74
2022/10/07 03:34:10;;;;;;;6.90;4.27;;;;;;;11.54;100.00;97160.50;5063410;28;20224;-74
2022/10/07 03:36:38;;;;;;;8.03;5.03;;;;;;;11.52;100.00;97155.31;5062717;28;20214;-74
2022/10/07 03:39:06;;;;;;;7.17;4.13;;;;;;;11.60;100.00;97159.63;5051445;28;20259;-75
2022/10/07 03:41:33;;;;;;;7.33;4.90;;;;;;;11.58;100.00;97156.31;5064452;28;20203;-74
2022/10/07 03:44:02;;;;;;;6.47;4.97;;;;;;;11.53;100.00;97159.69;5062733;28;20209;-74
2022/10/07 03:46:30;;;;;;;7.83;4.97;;;;;;;11.50;100.00;97156.56;5061673;28;20205;-74
2022/10/07 03:48:58;;;;;;;6.13;5.20;;;;;;;11.45;100.00;97153.69;5062596;28;20263;-75
2022/10/07 03:51:27;;;;;;;7.53;4.17;;;;;;;11.42;100.00;97143.31;5059918;28;20209;-74
2022/10/07 03:53:56;;;;;;;5.87;4.70;;;;;;;11.45;100.00;97148.28;5060569;28;20213;-75
2022/10/07 03:56:23;;;;;;;6.20;4.43;;;;;;;11.46;100.00;97158.06;5065488;28;20220;-74
2022/10/07 03:58:51;;;;;;;7.97;4.80;;;;;;;11.39;100.00;97152.69;5057305;28;20210;-74
2022/10/07 04:01:19;;;;;;;6.00;4.20;;;;;;;11.31;100.00;97148.34;5049881;28;20198;-74
2022/10/07 04:03:54;;;;;;;8.27;4.80;;;;;;;11.32;100.00;97150.00;5055381;28;20296;-74
2022/10/07 04:06:23;;;;;;;9.30;5.23;;;;;;;11.32;100.00;97150.00;5062219;28;20198;-74
2022/10/07 04:08:52;;;;;;;5.93;5.33;;;;;;;11.31;100.00;97150.25;5062324;28;20210;-75
2022/10/07 04:11:19;;;;;;;8.67;4.90;;;;;;;11.25;100.00;97156.50;5061276;28;20241;-75
2022/10/07 04:13:47;;;;;;;5.90;5.27;;;;;;;11.21;100.00;97153.41;5051340;28;20213;-74
2022/10/07 04:16:16;;;;;;;10.07;5.70;;;;;;;11.20;100.00;97143.63;5059162;28;20240;-75
2022/10/07 04:18:47;;;;;;;7.03;6.20;;;;;;;11.18;100.00;97147.59;5058645;28;20209;-75
2022/10/07 04:21:15;;;;;;;12.27;5.80;;;;;;;11.17;100.00;97146.75;5057560;28;20209;-74
2022/10/07 04:23:44;;;;;;;8.93;5.03;;;;;;;11.21;100.00;97148.00;5052976;28;20194;-75
2022/10/07 04:26:13;;;;;;;8.97;5.00;;;;;;;11.18;100.00;97153.81;5062777;28;20227;-74
2022/10/07 04:28:44;;;;;;;8.00;4.87;;;;;;;11.21;100.00;97148.00;5061812;28;20205;-74
2022/10/07 04:31:15;;;;;;;6.87;4.87;;;;;;;11.18;100.00;97131.38;5061083;28;20210;-74
2022/10/07 04:33:46;;;;;;;6.47;4.50;;;;;;;11.18;100.00;97140.31;5061032;28;20209;-74
2022/10/07 04:36:17;;;;;;;9.33;4.57;;;;;;;11.07;100.00;97140.97;5055052;28;20238;-74
2022/10/07 04:38:50;;;;;;;10.40;4.90;;;;;;;11.05;100.00;97137.66;5057805;28;20202;-74
2022/10/07 04:41:22;;;;;;;5.00;4.50;;;;;;;10.99;100.00;97144.75;5064661;28;20201;-74
2022/10/07 04:43:50;;;;;;;7.17;4.90;;;;;;;11.05;100.00;97137.66;5059535;28;20210;-74
2022/10/07 04:46:18;;;;;;;15.47;7.33;;;;;;;11.13;100.00;97133.88;5061680;28;20198;-74
2022/10/07 04:48:53;;;;;;;7.63;4.80;;;;;;;11.15;100.00;97132.63;5058912;28;20205;-75
2022/10/07 04:51:24;;;;;;;6.37;4.60;;;;;;;11.16;100.00;97130.75;5069916;28;20217;-74
2022/10/07 04:53:56;;;;;;;7.77;5.20;;;;;;;11.14;100.00;97139.09;5061093;28;20209;-75
2022/10/07 04:56:27;;;;;;;9.77;5.97;;;;;;;11.17;100.00;97135.94;5059144;28;20221;-75
2022/10/07 04:58:55;;;;;;;7.50;5.80;;;;;;;11.04;100.00;97125.19;5060358;28;20264;-74
2022/10/07 05:01:23;;;;;;;7.63;5.00;;;;;;;11.12;100.00;97132.22;5058019;28;20209;-74
2022/10/07 05:03:50;;;;;;;7.83;5.07;;;;;;;11.12;100.00;97137.63;5057378;28;20209;-75
2022/10/07 05:06:17;;;;;;;6.60;4.83;;;;;;;11.09;100.00;97148.88;5060560;28;20194;-75
2022/10/07 05:08:45;;;;;;;7.07;5.50;;;;;;;11.04;100.00;97137.88;5064010;28;20197;-75
2022/10/07 05:11:15;;;;;;;10.20;5.17;;;;;;;11.00;100.00;97132.88;5057122;28;20227;-75
2022/10/07 05:13:51;;;;;;;7.40;4.60;;;;;;;11.04;100.00;97133.31;5064062;28;20201;-75
2022/10/07 05:16:18;;;;;;;6.13;4.57;;;;;;;11.10;100.00;97129.72;5057987;28;20228;-75
2022/10/07 05:18:45;;;;;;;6.07;5.00;;;;;;;11.08;100.00;97137.22;5061184;28;20228;-75
2022/10/07 05:21:14;;;;;;;7.13;5.23;;;;;;;11.03;100.00;97131.63;5053319;28;20214;-75
2022/10/07 05:23:45;;;;;;;7.97;5.17;;;;;;;11.06;100.00;97131.19;5053387;28;20193;-75
2022/10/07 05:26:17;;;;;;;7.07;4.80;;;;;;;10.98;100.00;97143.06;5045463;28;20198;-75
2022/10/07 05:28:49;;;;;;;6.27;4.40;;;;;;;10.99;100.00;97133.09;5064159;28;20205;-75
2022/10/07 05:31:24;;;;;;;6.70;4.60;;;;;;;10.98;100.00;97136.84;5057961;28;20513;-75
2022/10/07 05:33:55;;;;;;;7.77;4.53;;;;;;;10.98;100.00;97144.94;5057046;28;20209;-75
2022/10/07 05:36:24;;;;;;;9.40;4.80;;;;;;;11.00;100.00;97143.69;5052114;28;20291;-75
2022/10/07 05:38:56;;;;;;;7.53;5.00;;;;;;;11.04;100.00;97151.38;5058276;28;20279;-75
2022/10/07 05:41:26;;;;;;;6.30;5.30;;;;;;;11.00;100.00;97145.56;5068827;28;20209;-75
2022/10/07 05:43:54;;;;;;;6.67;5.07;;;;;;;11.02;100.00;97143.50;5056472;28;20201;-75
2022/10/07 05:46:22;;;;;;;7.23;5.30;;;;;;;10.99;100.00;97149.31;5060334;28;20231;-75
2022/10/07 05:48:54;;;;;;;8.83;5.17;;;;;;;10.89;100.00;97147.06;5049581;28;20213;-75
2022/10/07 05:51:25;;;;;;;8.10;4.90;;;;;;;10.88;100.00;97150.00;5064009;28;20212;-75
2022/10/07 05:53:54;;;;;;;10.23;4.90;;;;;;;10.91;100.00;97157.66;5063058;28;20205;-75
2022/10/07 05:56:24;;;;;;;6.63;5.13;;;;;;;10.95;100.00;97150.78;5065008;28;20218;-75
2022/10/07 05:58:54;;;;;;;9.23;5.20;;;;;;;10.92;100.00;97148.50;5062340;28;20216;-74
2022/10/07 06:01:23;;;;;;;8.97;6.17;;;;;;;10.95;100.00;97140.81;5064854;28;20347;-74
2022/10/07 06:03:53;;;;;;;5.87;5.00;;;;;;;11.01;100.00;97141.81;5067121;28;20217;-74
2022/10/07 06:06:22;;;;;;;8.00;5.77;;;;;;;11.07;100.00;97140.13;5062003;28;20204;-75
2022/10/07 06:13:06;;;;;;;6.13;5.17;;;;;;;11.05;100.00;97136.84;5065288;28;20290;-74
2022/10/07 06:14:28;;;;;;;8.53;5.33;;;;;;;10.99;100.00;97150.16;5067047;28;20237;-75
2022/10/07 06:16:55;;;;;;;7.27;5.03;;;;;;;11.00;100.00;97143.69;5062951;28;20225;-75
2022/10/07 06:19:22;;;;;;;6.03;4.97;;;;;;;11.05;100.00;97139.53;5063357;28;20297;-74
2022/10/07 06:21:51;;;;;;;8.27;4.80;;;;;;;11.09;100.00;97146.16;5052656;28;20232;-74
2022/10/07 06:24:19;;;;;;;7.97;5.60;;;;;;;11.07;100.00;97145.53;5064361;28;20205;-74
2022/10/07 06:26:48;;;;;;;7.13;5.57;;;;;;;11.09;100.00;97152.41;5065225;28;20205;-74
2022/10/07 06:29:16;;;;;;;9.03;5.70;;;;;;;11.10;100.00;97156.75;5057783;28;20244;-75
2022/10/07 06:31:45;;;;;;;10.27;5.63;;;;;;;11.12;100.00;97151.97;5059639;28;20193;-74
2022/10/07 06:34:12;;;;;;;7.87;5.50;;;;;;;11.18;100.00;97151.13;5064256;28;20339;-74
2022/10/07 06:36:39;;;;;;;7.10;5.43;;;;;;;11.16;100.00;97150.50;5061598;28;20229;-74
2022/10/07 06:39:07;;;;;;;7.83;5.33;;;;;;;11.15;100.00;97151.53;5061000;28;20372;-75
2022/10/07 06:41:38;;;;;;;11.50;6.13;;;;;;;11.15;100.00;97148.84;5063131;28;20205;-74
2022/10/07 06:44:24;;;;;;;9.70;5.67;;;;;;;11.17;100.00;97154.03;5063842;28;20237;-75
2022/10/07 06:46:53;;;;;;;6.97;5.43;;;;;;;11.19;100.00;97150.06;5059574;28;20258;-74
2022/10/07 06:49:20;;;;;;;8.30;6.10;;;;;;;11.19;100.00;97158.19;5067064;28;20204;-75
2022/10/07 06:51:48;;;;;;;8.20;6.80;;;;;;;11.17;100.00;97154.84;5066287;28;20212;-74
2022/10/07 06:54:15;;;;;;;10.47;6.20;;;;;;;11.19;100.00;97163.59;5067295;28;20217;-75
2022/10/07 06:56:42;;;;;;;8.10;5.03;;;;;;;11.19;100.00;97162.75;5061728;28;20876;-74
2022/10/07 06:59:10;;;;;;;8.77;5.37;;;;;;;11.15;100.00;97154.22;5062418;28;20265;-75
2022/10/07 07:01:47;;;;;;;9.40;5.50;;;;;;;11.10;100.00;97151.34;5061476;28;20202;-75
2022/10/07 07:04:14;;;;;;;11.77;6.83;;;;;;;11.00;100.00;97151.81;5056381;28;20525;-74
2022/10/07 07:06:42;;;;;;;12.87;6.83;;;;;;;10.99;100.00;97152.00;5066303;28;20205;-74
2022/10/07 07:09:10;;;;;;;11.57;6.73;;;;;;;10.98;100.00;97153.06;5069346;28;20209;-74
2022/10/07 07:11:42;;;;;;;9.53;6.00;;;;;;;11.00;100.00;97156.38;5061960;28;20205;-74
2022/10/07 07:14:14;;;;;;;7.47;5.40;;;;;;;11.07;100.00;97148.25;5057942;28;20205;-75
2022/10/07 07:16:47;;;;;;;11.33;6.47;;;;;;;11.10;100.00;97145.13;5058228;28;20236;-74
2022/10/07 07:19:15;;;;;;;11.93;6.23;;;;;;;11.07;100.00;97157.19;5067356;28;20202;-75
2022/10/07 07:21:42;;;;;;;7.27;5.50;;;;;;;11.07;100.00;97151.78;5054103;28;20217;-74
2022/10/07 07:24:15;;;;;;;7.47;5.30;;;;;;;11.15;100.00;97154.22;5068512;28;20331;-74
2022/10/07 07:26:45;;;;;;;13.00;7.73;;;;;;;11.12;100.00;97146.56;5056354;28;20277;-74
2022/10/07 07:29:15;;;;;;;7.37;6.07;;;;;;;11.12;100.00;97138.47;5054615;28;20290;-75
2022/10/07 07:32:01;;;;;;;6.67;5.73;;;;;;;11.16;100.00;97144.25;5063363;28;20213;-74
2022/10/07 07:34:32;;;;;;;9.03;5.37;;;;;;;11.19;100.00;97136.56;5065318;28;20201;-74
2022/10/07 07:36:59;;;;;;;7.07;5.13;;;;;;;11.24;100.00;97139.44;5065924;28;20221;-75
2022/10/07 07:39:33;;;;;;;9.23;6.40;;;;;;;11.25;100.00;97138.41;5065860;28;20351;-74
2022/10/07 07:42:08;;;;;;;6.50;5.50;;;;;;;11.28;100.00;97132.56;5068242;28;20208;-75
2022/10/07 07:44:37;;;;;;;8.77;5.33;;;;;;;11.26;100.00;97134.66;5065825;28;20209;-74
2022/10/07 07:47:10;;;;;;;7.97;5.37;;;;;;;11.29;100.00;97134.22;5060623;28;20209;-74
2022/10/07 07:49:38;;;;;;;8.00;5.30;;;;;;;11.31;100.00;97140.22;5057225;28;20209;-74
2022/10/07 07:52:07;;;;;;;8.80;5.30;;;;;;;11.31;100.00;97134.03;5064582;28;20205;-74
2022/10/07 07:54:40;;;;;;;10.77;5.33;;;;;;;11.31;100.00;97136.72;5063414;28;20212;-74
2022/10/07 07:57:08;;;;;;;9.70;5.50;;;;;;;11.34;100.00;97145.22;5065321;28;20267;-75
2022/10/07 07:59:37;;;;;;;8.10;5.57;;;;;;;11.37;100.00;97136.69;5056786;28;20296;-75
2022/10/07 08:02:05;;;;;;;18.27;7.47;;;;;;;11.37;100.00;97136.69;5061445;28;20201;-75
2022/10/07 08:04:34;;;;;;;8.63;6.30;;;;;;;11.40;100.00;97134.59;5062368;28;20205;-74
2022/10/07 08:07:01;;;;;;;6.23;5.33;;;;;;;11.41;100.00;97130.81;5058403;28;20214;-75
2022/10/07 08:09:29;;;;;;;7.70;5.57;;;;;;;11.46;100.00;97136.44;5063369;28;20372;-75
2022/10/07 08:11:56;;;;;;;7.87;5.57;;;;;;;11.52;100.00;97138.25;5063199;28;20251;-75
2022/10/07 08:14:23;;;;;;;6.47;5.73;;;;;;;11.56;100.00;97131.38;5061651;28;20316;-75
2022/10/07 08:16:54;;;;;;;7.27;5.50;;;;;;;11.59;100.00;97130.94;5059098;28;20313;-75
2022/10/07 08:19:21;;;;;;;5.83;5.07;;;;;;;11.67;100.00;97130.66;5063835;28;20219;-75
2022/10/07 08:21:51;;;;;;;8.50;5.03;;;;;;;11.77;100.00;97132.94;5055896;28;20214;-75
2022/10/07 08:24:23;;;;;;;6.70;5.20;;;;;;;11.96;100.00;97124.69;5050054;28;20665;-75
2022/10/07 08:26:52;;;;;;;11.10;5.57;;;;;;;12.07;100.00;97126.69;5058534;28;20205;-75
2022/10/07 08:29:19;;;;;;;7.07;4.50;;;;;;;12.24;100.00;97131.53;5060376;28;20329;-75
2022/10/07 08:31:46;;;;;;;6.27;5.23;;;;;;;12.39;100.00;97123.91;5061659;28;20201;-75
2022/10/07 08:34:14;;;;;;;8.93;5.50;;;;;;;12.55;100.00;97127.91;5064405;28;20314;-75
2022/10/07 08:36:45;;;;;;;9.27;5.23;;;;;;;12.71;100.00;97120.03;5062578;28;20201;-75
2022/10/07 08:39:14;;;;;;;5.63;4.67;;;;;;;12.83;100.00;97115.53;5062955;28;20209;-75
2022/10/07 08:41:58;;;;;;;5.07;4.57;;;;;;;13.00;100.00;97123.03;5060666;28;20228;-75
2022/10/07 08:44:30;;;;;;;5.70;5.00;;;;;;;13.14;100.00;97117.25;5061667;28;20312;-75
2022/10/07 08:47:10;;;;;;;5.80;4.80;;;;;;;13.29;100.00;97125.00;5058757;28;20207;-75
2022/10/07 08:49:52;;;;;;;6.53;4.80;;;;;;;13.37;100.00;97116.53;5058023;28;20205;-76
2022/10/07 08:52:28;;;;;;;7.40;5.17;;;;;;;13.56;100.00;97114.63;5077997;28;20292;-76
2022/10/07 08:54:58;;;;;;;10.80;5.50;;;;;;;13.71;100.00;97106.88;5063354;28;20244;-75
2022/10/07 08:57:55;;;;;;;6.03;5.00;;;;;;;13.91;100.00;97101.97;5062104;28;20233;-76
2022/10/07 09:00:26;;;;;;;6.47;4.93;;;;;;;14.09;100.00;97102.97;5064953;28;20228;-76
2022/10/07 09:03:14;;;;;;;7.57;5.20;;;;;;;14.22;100.00;97097.28;5059836;28;20202;-77
2022/10/07 09:05:45;;;;;;;7.83;5.10;;;;;;;14.32;100.00;97092.94;5058452;28;20209;-77
2022/10/07 09:08:17;;;;;;;9.00;5.40;;;;;;;14.46;100.00;97103.63;5054196;28;20201;-77
2022/10/07 09:10:48;;;;;;;7.90;5.23;;;;;;;14.64;100.00;97101.56;5060903;28;20210;-76
2022/10/07 09:13:19;;;;;;;6.97;5.30;;;;;;;14.79;100.00;97095.69;5061332;28;20279;-76
2022/10/07 09:16:05;;;;;;;9.80;5.50;;;;;;;14.88;100.00;97101.56;5060954;28;20352;-76
2022/10/07 09:18:38;;;;;;;7.37;5.40;;;;;;;14.99;100.00;97093.38;5059310;28;20328;-77
2022/10/07 09:21:10;;;;;;;6.10;5.17;;;;;;;15.13;100.00;97091.22;5061964;28;20223;-77
2022/10/07 09:23:38;;;;;;;8.03;5.87;;;;;;;15.24;100.00;97087.63;5065192;28;20206;-77
2022/10/07 09:26:10;;;;;;;7.67;5.53;;;;;;;15.38;100.00;97085.47;5060747;28;20206;-77
2022/10/07 09:28:37;;;;;;;7.03;5.83;;;;;;;15.52;100.00;97092.25;5064334;28;20213;-77
2022/10/07 09:31:04;;;;;;;8.70;5.80;;;;;;;15.66;100.00;97076.47;5062298;28;20202;-77
2022/10/07 09:33:35;;;;;;;14.17;6.17;;;;;;;15.84;100.00;97087.16;5065452;28;20201;-77
2022/10/07 09:36:07;;;;;;;8.67;5.93;;;;;;;15.96;100.00;97078.91;5069695;28;20260;-77
2022/10/07 09:38:35;;;;;;;8.77;5.50;;;;;;;16.09;100.00;97073.13;5063246;28;20229;-77
2022/10/07 09:41:19;;;;;;;8.23;5.27;;;;;;;16.25;100.00;97080.47;5061775;28;20202;-77
2022/10/07 09:44:03;;;;;;;9.07;6.30;;;;;;;16.45;100.00;97077.25;5063137;28;20247;-77
2022/10/07 09:46:40;;;;;;;6.73;6.00;;;;;;;16.60;100.00;97069.28;5065123;28;20201;-77
2022/10/07 09:49:31;;;;;;;6.57;5.70;;;;;;;16.76;100.00;97063.00;5065310;28;20213;-76
2022/10/07 09:52:00;;;;;;;7.63;6.10;;;;;;;17.04;100.00;97072.94;5055262;28;20201;-76
2022/10/07 09:54:28;;;;;;;8.87;5.70;;;;;;;17.21;100.00;97060.03;5069399;28;20202;-77
2022/10/07 09:56:59;;;;;;;8.23;5.60;;;;;;;17.33;100.00;97060.75;5063130;28;20244;-76
2022/10/07 09:59:29;;;;;;;8.73;6.20;;;;;;;17.44;100.00;97058.13;5062152;28;20284;-76
2022/10/07 10:01:58;;;;;;;11.67;6.50;;;;;;;17.55;100.00;97057.97;5059789;28;20273;-76
2022/10/07 10:04:31;;;;;;;8.00;6.53;;;;;;;17.61;100.00;97047.91;5064499;28;20307;-76
2022/10/07 10:07:03;;;;;;;8.00;5.80;;;;;;;17.68;100.00;97048.56;5066757;28;20193;-77
2022/10/07 10:09:30;;;;;;;6.50;5.80;;;;;;;17.79;100.00;97053.03;5060856;28;20197;-75
2022/10/07 10:12:13;;;;;;;6.83;5.43;;;;;;;17.94;100.00;97042.28;5061513;28;20292;-74
2022/10/07 10:14:47;;;;;;;9.03;5.63;;;;;;;18.04;100.00;97042.34;5061640;28;20260;-75
2022/10/07 10:17:38;;;;;;;7.20;6.13;;;;;;;18.13;100.00;97040.75;5060653;28;20275;-76
2022/10/07 10:20:29;;;;;;;8.80;5.17;;;;;;;18.36;100.00;97025.91;5062931;28;20267;-74
2022/10/07 10:22:57;;;;;;;7.53;5.53;;;;;;;18.54;100.00;97028.19;5066444;28;20298;-75
2022/10/07 10:28:34;;;;;;;7.53;5.53;;;;;;;19.09;99.69;97009.63;5065768;28;20205;-74
2022/10/07 10:31:08;;;;;;;9.57;6.00;;;;;;;19.25;98.89;97016.78;5063821;28;20205;-75
2022/10/07 10:33:43;;;;;;;7.72;6.70;;;;;;;19.38;98.63;97021.78;5064184;28;20206;-74
2022/10/07 10:36:18;;;;;;;9.25;5.80;;;;;;;19.44;97.70;97007.00;5056888;28;20204;-75
2022/10/07 10:38:49;;;;;;;7.50;6.28;;;;;;;19.52;97.89;97011.16;5058842;28;20312;-75
2022/10/07 10:41:34;;;;;;;7.25;6.10;;;;;;;19.57;96.58;97003.75;5062111;28;20217;-76
2022/10/07 10:44:34;;;;;;;6.70;5.60;;;;;;;19.74;95.76;96998.03;5059005;28;20382;-74
2022/10/07 10:47:12;;;;;;;6.95;6.25;;;;;;;19.87;95.48;96986.53;5062197;28;20283;-74
2022/10/07 10:49:51;;;;;;;7.45;6.53;;;;;;;20.04;94.65;96991.75;5061252;28;20274;-74
2022/10/07 10:52:34;;;;;;;11.15;6.72;;;;;;;19.97;93.87;96994.75;5062106;28;20209;-74
2022/10/07 10:55:16;;;;;;;8.73;6.15;;;;;;;20.08;95.12;96976.38;5060963;28;20197;-74
2022/10/07 10:57:57;;;;;;;7.18;5.97;;;;;;;20.18;93.44;96973.63;5058080;28;20233;-75
2022/10/07 11:00:34;;;;;;;9.23;6.43;;;;;;;20.28;92.97;96976.34;5060539;28;20344;-75
2022/10/07 11:03:18;;;;;;;8.98;6.60;;;;;;;20.46;92.65;96974.16;5059524;28;20212;-74
2022/10/07 11:05:47;;;;;;;8.57;6.28;;;;;;;20.79;91.23;96970.75;5059696;28;20201;-72
2022/10/07 11:08:19;;;;;;;10.23;6.60;;;;;;;20.77;89.77;96967.47;5054711;28;20296;-73
2022/10/07 11:10:50;;;;;;;7.40;6.00;;;;;;;20.81;90.02;96965.00;5063363;28;20263;-73
2022/10/07 11:13:26;;;;;;;9.15;6.28;;;;;;;20.82;89.65;96959.22;5057572;28;20190;-73
2022/10/07 11:16:01;;;;;;;8.40;6.00;;;;;;;20.97;89.01;96961.09;5064208;28;20237;-71
2022/10/07 11:18:35;;;;;;;8.40;6.18;;;;;;;21.09;88.76;96965.16;5055519;28;20221;-73
2022/10/07 11:21:06;;;;;;;9.57;6.63;;;;;;;21.17;87.85;96960.19;5062538;28;20211;-74
2022/10/07 11:23:41;;;;;;;9.00;7.05;;;;;;;21.24;87.26;96953.28;5052493;28;20226;-72
2022/10/07 11:26:16;;;;;;;7.72;6.68;;;;;;;21.17;87.11;96952.78;5059304;28;20201;-73
2022/10/07 11:28:44;;;;;;;7.18;6.25;;;;;;;21.11;88.95;96940.13;5056761;28;20294;-73
2022/10/07 11:31:24;;;;;;;7.78;5.85;;;;;;;21.21;87.22;96934.63;5062942;28;20387;-72
2022/10/07 11:34:03;;;;;;;7.43;6.60;;;;;;;21.19;87.01;96936.81;5068626;28;20201;-73
2022/10/07 11:36:43;;;;;;;10.23;6.47;;;;;;;21.29;87.97;96935.94;5058439;28;20209;-73
2022/10/07 11:39:11;;;;;;;9.48;5.90;;;;;;;21.33;86.56;96926.03;5063736;28;20260;-73
2022/10/07 11:41:47;;;;;;;9.70;6.53;;;;;;;21.24;86.19;96927.75;5064695;28;20205;-73
2022/10/07 11:44:19;;;;;;;9.23;6.82;;;;;;;21.17;86.94;96919.84;5058111;28;20193;-72
2022/10/07 11:46:49;;;;;;;9.85;6.78;;;;;;;21.14;87.37;96910.19;5062350;28;20229;-73
2022/10/07 11:49:22;;;;;;;9.93;6.63;;;;;;;21.28;86.80;96912.31;5060734;28;20193;-73
2022/10/07 11:51:57;;;;;;;6.85;6.13;;;;;;;21.33;86.84;96909.56;5058740;28;20265;-73